Time;durP1;ratioP1;P1;durP2;ratioP2;P2;SDS_P1;SDS_P2;PMS_P1;PMS_P2;Temp;Humidity;BMP_temperature;BMP_pressure;BME280_temperature;BME280_humidity;BME280_pressure;Samples;Min_cycle;Max_cycle;Signal;HPM_P1;HPM_P2
2024/01/29 00:01:49;;;;;;;17.65;15.75;;;;;;;;;;5016366;28;20430;-79
2024/01/29 00:04:15;;;;;;;16.27;14.15;;;;;;;;;;5015939;28;20412;-79
2024/01/29 00:06:41;;;;;;;18.40;15.23;;;;;;;;;;5015849;28;20384;-79
2024/01/29 00:09:07;;;;;;;16.60;14.52;;;;;;;;;;5015286;28;20483;-79
2024/01/29 00:11:33;;;;;;;16.17;14.50;;;;;;;;;;5014667;28;20401;-79
2024/01/29 00:14:00;;;;;;;17.15;15.35;;;;;;;;;;5015409;28;20928;-78
2024/01/29 00:16:26;;;;;;;18.50;15.82;;;;;;;;;;5015561;28;20472;-79
2024/01/29 00:18:52;;;;;;;18.33;15.68;;;;;;;;;;5015526;28;20901;-78
2024/01/29 00:21:18;;;;;;;19.05;16.70;;;;;;;;;;5015188;28;20451;-79
2024/01/29 00:23:44;;;;;;;22.55;18.10;;;;;;;;;;5015030;28;20805;-79
2024/01/29 00:26:10;;;;;;;21.77;17.45;;;;;;;;;;5016001;28;20461;-78
2024/01/29 00:28:36;;;;;;;19.98;17.67;;;;;;;;;;5015346;28;20405;-79
2024/01/29 00:31:02;;;;;;;19.98;16.75;;;;;;;;;;5015539;28;20381;-79
2024/01/29 00:33:30;;;;;;;17.27;15.40;;;;;;;;;;5013701;28;20473;-79
2024/01/29 00:35:56;;;;;;;17.10;15.30;;;;;;;;;;5015174;28;20401;-79
2024/01/29 00:38:22;;;;;;;17.48;15.57;;;;;;;;;;5015087;28;20491;-79
2024/01/29 00:40:48;;;;;;;16.80;15.10;;;;;;;;;;5015345;28;20435;-79
2024/01/29 00:43:14;;;;;;;20.45;16.33;;;;;;;;;;5014809;28;20420;-79
2024/01/29 00:45:40;;;;;;;20.40;16.83;;;;;;;;;;5015037;28;20764;-79
2024/01/29 00:48:06;;;;;;;23.77;18.60;;;;;;;;;;5014658;28;20463;-79
2024/01/29 00:50:32;;;;;;;25.13;18.63;;;;;;;;;;5014380;28;20832;-78
2024/01/29 00:52:58;;;;;;;24.47;17.73;;;;;;;;;;5014643;28;20380;-78
2024/01/29 00:55:24;;;;;;;18.17;15.43;;;;;;;;;;5014684;28;20830;-79
2024/01/29 00:57:50;;;;;;;17.02;15.23;;;;;;;;;;5013096;28;20381;-78
2024/01/29 01:00:16;;;;;;;17.30;15.40;;;;;;;;;;5013690;28;20387;-78
2024/01/29 01:02:42;;;;;;;17.45;15.05;;;;;;;;;;5014178;28;20385;-79
2024/01/29 01:05:08;;;;;;;16.75;15.05;;;;;;;;;;5013904;28;20408;-80
2024/01/29 01:07:37;;;;;;;16.05;14.35;;;;;;;;;;5014569;28;20385;-78
2024/01/29 01:10:03;;;;;;;15.02;13.43;;;;;;;;;;5013634;28;20841;-78
2024/01/29 01:12:29;;;;;;;16.02;14.32;;;;;;;;;;5013449;28;20432;-78
2024/01/29 01:14:55;;;;;;;15.15;13.60;;;;;;;;;;5013272;28;20384;-78
2024/01/29 01:17:21;;;;;;;13.75;12.43;;;;;;;;;;5013149;28;20384;-78
2024/01/29 01:19:47;;;;;;;14.82;13.32;;;;;;;;;;5013534;28;20915;-78
2024/01/29 01:22:14;;;;;;;15.25;13.85;;;;;;;;;;5013739;28;20383;-78
2024/01/29 01:24:40;;;;;;;14.38;12.98;;;;;;;;;;5013248;28;20408;-78
2024/01/29 01:27:06;;;;;;;14.77;13.27;;;;;;;;;;5012703;28;20379;-77
2024/01/29 01:29:32;;;;;;;13.90;12.60;;;;;;;;;;5012989;28;20723;-78
2024/01/29 01:31:58;;;;;;;14.63;13.10;;;;;;;;;;5012733;28;20523;-78
2024/01/29 01:34:24;;;;;;;13.93;12.52;;;;;;;;;;5012361;28;20400;-78
2024/01/29 01:36:50;;;;;;;14.05;12.65;;;;;;;;;;5012470;28;20476;-78
2024/01/29 01:39:16;;;;;;;15.10;13.50;;;;;;;;;;5012680;28;20425;-78
2024/01/29 01:41:50;;;;;;;15.63;13.93;;;;;;;;;;5004423;28;20389;-78
2024/01/29 01:44:16;;;;;;;18.20;15.05;;;;;;;;;;5007899;28;20871;-77
2024/01/29 01:46:42;;;;;;;18.77;14.90;;;;;;;;;;5013402;28;20392;-77
2024/01/29 01:49:08;;;;;;;18.70;14.90;;;;;;;;;;5013488;28;20392;-79
2024/01/29 01:51:34;;;;;;;18.52;15.63;;;;;;;;;;5014000;28;20393;-80
2024/01/29 01:54:01;;;;;;;18.58;14.73;;;;;;;;;;5013721;28;21105;-80
2024/01/29 01:56:27;;;;;;;19.73;15.40;;;;;;;;;;5014173;28;20391;-79
2024/01/29 01:58:55;;;;;;;17.80;14.77;;;;;;;;;;5014140;28;20839;-79
2024/01/29 02:01:21;;;;;;;16.13;14.30;;;;;;;;;;5014170;28;20396;-80
2024/01/29 02:03:47;;;;;;;19.83;15.67;;;;;;;;;;5017566;28;20400;-80
2024/01/29 02:06:13;;;;;;;18.38;15.23;;;;;;;;;;5017797;28;20396;-80
2024/01/29 02:08:39;;;;;;;19.48;15.77;;;;;;;;;;5017453;28;20384;-80
2024/01/29 02:11:05;;;;;;;22.08;16.17;;;;;;;;;;5017236;28;20383;-80
2024/01/29 02:13:31;;;;;;;22.13;16.88;;;;;;;;;;5017860;28;20381;-80
2024/01/29 02:15:57;;;;;;;23.20;16.60;;;;;;;;;;5017514;28;20443;-80
2024/01/29 02:18:23;;;;;;;21.47;16.40;;;;;;;;;;5017922;28;20536;-80
2024/01/29 02:20:49;;;;;;;22.08;16.65;;;;;;;;;;5017523;28;20388;-80
2024/01/29 02:23:15;;;;;;;25.40;16.92;;;;;;;;;;5017285;28;20716;-79
2024/01/29 02:25:41;;;;;;;26.00;17.50;;;;;;;;;;5017233;28;20385;-79
2024/01/29 02:28:07;;;;;;;26.15;17.08;;;;;;;;;;5017329;28;20384;-79
2024/01/29 02:30:33;;;;;;;23.20;17.08;;;;;;;;;;5017499;28;20376;-79
2024/01/29 02:32:59;;;;;;;26.13;18.35;;;;;;;;;;5017330;28;20413;-79
2024/01/29 02:35:25;;;;;;;26.90;17.52;;;;;;;;;;5016990;28;20377;-77
2024/01/29 02:37:51;;;;;;;25.53;16.70;;;;;;;;;;5015683;28;20397;-77
2024/01/29 02:40:17;;;;;;;35.00;17.27;;;;;;;;;;5008428;28;20396;-79
2024/01/29 02:42:43;;;;;;;36.05;18.25;;;;;;;;;;5013593;28;20716;-79
2024/01/29 02:45:09;;;;;;;31.98;18.40;;;;;;;;;;5016605;28;20427;-79
2024/01/29 02:47:35;;;;;;;28.55;18.35;;;;;;;;;;5016376;28;20381;-79
2024/01/29 02:50:01;;;;;;;26.50;17.43;;;;;;;;;;5017142;28;20526;-80
2024/01/29 02:52:28;;;;;;;28.00;17.67;;;;;;;;;;5016888;28;20933;-79
2024/01/29 02:54:54;;;;;;;27.27;17.98;;;;;;;;;;5016466;28;20468;-79
2024/01/29 02:57:26;;;;;;;31.13;18.52;;;;;;;;;;5017263;28;20420;-79
2024/01/29 02:59:52;;;;;;;25.73;18.58;;;;;;;;;;5017154;28;20464;-80
2024/01/29 03:02:18;;;;;;;29.27;19.23;;;;;;;;;;5017478;28;20385;-79
2024/01/29 03:04:44;;;;;;;29.45;19.50;;;;;;;;;;5016745;28;20416;-79
2024/01/29 03:07:10;;;;;;;28.15;18.70;;;;;;;;;;5017214;28;20373;-79
2024/01/29 03:09:37;;;;;;;30.63;18.88;;;;;;;;;;5016771;28;20842;-79
2024/01/29 03:12:03;;;;;;;29.60;19.25;;;;;;;;;;5017140;28;20396;-79
2024/01/29 03:14:29;;;;;;;33.45;20.02;;;;;;;;;;5016072;28;20727;-79
2024/01/29 03:16:55;;;;;;;30.48;18.58;;;;;;;;;;5016904;28;20460;-79
2024/01/29 03:19:21;;;;;;;27.65;18.27;;;;;;;;;;5017313;28;20388;-79
2024/01/29 03:21:47;;;;;;;28.45;17.90;;;;;;;;;;5016383;28;20439;-79
2024/01/29 03:24:14;;;;;;;24.83;17.70;;;;;;;;;;5015695;28;20495;-79
2024/01/29 03:26:40;;;;;;;29.55;18.33;;;;;;;;;;5016410;28;20435;-79
2024/01/29 03:29:06;;;;;;;27.50;17.93;;;;;;;;;;5016649;28;20389;-79
2024/01/29 03:31:32;;;;;;;28.38;17.92;;;;;;;;;;5016400;28;20796;-79
2024/01/29 03:33:58;;;;;;;28.77;19.60;;;;;;;;;;5015849;28;20392;-79
2024/01/29 03:36:24;;;;;;;29.65;19.35;;;;;;;;;;5014587;28;20597;-79
2024/01/29 03:38:49;;;;;;;25.30;17.42;;;;;;;;;;5016173;28;20400;-79
2024/01/29 03:41:15;;;;;;;27.13;18.40;;;;;;;;;;5016439;28;20453;-79
2024/01/29 03:43:41;;;;;;;23.00;18.38;;;;;;;;;;5016230;28;20409;-79
2024/01/29 03:46:07;;;;;;;21.33;15.48;;;;;;;;;;5016220;28;20385;-79
2024/01/29 03:48:33;;;;;;;20.58;15.98;;;;;;;;;;5016029;28;20377;-79
2024/01/29 03:50:59;;;;;;;20.20;15.73;;;;;;;;;;5014955;28;20399;-79
2024/01/29 03:53:25;;;;;;;20.92;16.30;;;;;;;;;;5016030;28;20790;-79
2024/01/29 03:55:52;;;;;;;18.77;14.43;;;;;;;;;;5016340;28;20423;-79
2024/01/29 03:58:20;;;;;;;19.80;15.13;;;;;;;;;;5015678;28;20809;-79
2024/01/29 04:00:46;;;;;;;21.73;15.80;;;;;;;;;;5015910;28;20468;-79
2024/01/29 04:03:12;;;;;;;18.95;15.43;;;;;;;;;;5015193;28;20431;-79
2024/01/29 04:05:38;;;;;;;19.75;15.23;;;;;;;;;;5015386;28;20427;-79
2024/01/29 04:08:04;;;;;;;18.60;14.52;;;;;;;;;;5015752;28;20413;-79
2024/01/29 04:10:30;;;;;;;19.23;14.50;;;;;;;;;;5015523;28;20389;-79
2024/01/29 04:12:56;;;;;;;18.63;14.57;;;;;;;;;;5015330;28;20377;-79
2024/01/29 04:15:22;;;;;;;20.88;15.30;;;;;;;;;;5015687;28;20385;-79
2024/01/29 04:17:48;;;;;;;16.20;13.68;;;;;;;;;;5015291;28;20396;-79
2024/01/29 04:20:14;;;;;;;19.07;14.00;;;;;;;;;;5015834;28;20486;-79
2024/01/29 04:22:40;;;;;;;19.95;14.48;;;;;;;;;;5014873;28;20389;-79
2024/01/29 04:25:06;;;;;;;20.17;14.77;;;;;;;;;;5014677;28;20413;-79
2024/01/29 04:27:33;;;;;;;17.98;14.82;;;;;;;;;;5014622;28;20384;-79
2024/01/29 04:30:01;;;;;;;17.88;14.23;;;;;;;;;;5014519;28;20381;-79
2024/01/29 04:32:27;;;;;;;18.73;15.10;;;;;;;;;;5014496;28;20601;-79
2024/01/29 04:34:53;;;;;;;18.40;14.18;;;;;;;;;;5014598;28;20391;-79
2024/01/29 04:37:19;;;;;;;23.63;16.00;;;;;;;;;;5014091;28;20413;-79
2024/01/29 04:39:45;;;;;;;23.83;16.27;;;;;;;;;;5014777;28;20388;-79
2024/01/29 04:42:11;;;;;;;21.55;15.70;;;;;;;;;;5014642;28;20464;-79
2024/01/29 04:44:37;;;;;;;19.13;14.25;;;;;;;;;;5013718;28;20419;-79
2024/01/29 04:47:03;;;;;;;18.77;14.38;;;;;;;;;;5014011;28;20837;-79
2024/01/29 04:49:29;;;;;;;21.70;15.20;;;;;;;;;;5014068;28;20862;-79
2024/01/29 04:51:55;;;;;;;21.35;14.82;;;;;;;;;;5013977;28;20389;-79
2024/01/29 04:54:21;;;;;;;21.75;15.43;;;;;;;;;;5014127;28;20423;-79
2024/01/29 04:56:47;;;;;;;20.70;15.10;;;;;;;;;;5013460;28;20565;-79
2024/01/29 04:59:13;;;;;;;18.30;14.40;;;;;;;;;;5014052;28;20403;-79
2024/01/29 05:01:39;;;;;;;18.90;14.77;;;;;;;;;;5014013;28;20492;-79
2024/01/29 05:04:05;;;;;;;19.87;14.90;;;;;;;;;;5013774;28;20420;-79
2024/01/29 05:06:31;;;;;;;20.05;14.35;;;;;;;;;;5013967;28;20384;-79
2024/01/29 05:08:57;;;;;;;18.48;13.88;;;;;;;;;;5013642;28;20381;-79
2024/01/29 05:11:23;;;;;;;24.55;15.52;;;;;;;;;;5013887;28;20735;-79
2024/01/29 05:13:49;;;;;;;19.23;14.57;;;;;;;;;;5012798;28;20857;-79
2024/01/29 05:16:15;;;;;;;20.42;14.75;;;;;;;;;;5013354;28;20847;-79
2024/01/29 05:18:42;;;;;;;18.85;14.25;;;;;;;;;;5013626;28;20761;-79
2024/01/29 05:21:08;;;;;;;25.10;16.48;;;;;;;;;;5013332;28;20384;-79
2024/01/29 05:23:34;;;;;;;24.63;16.02;;;;;;;;;;5013140;28;20440;-79
2024/01/29 05:26:00;;;;;;;23.25;15.80;;;;;;;;;;5013418;28;20389;-79
2024/01/29 05:28:26;;;;;;;26.10;17.15;;;;;;;;;;5012962;28;20415;-79
2024/01/29 05:30:52;;;;;;;36.40;20.67;;;;;;;;;;5013105;28;20388;-79
2024/01/29 05:33:18;;;;;;;28.88;18.90;;;;;;;;;;5013012;28;20401;-79
2024/01/29 05:35:44;;;;;;;29.90;18.33;;;;;;;;;;5014521;28;20384;-80
2024/01/29 05:38:10;;;;;;;28.20;18.03;;;;;;;;;;5019700;28;20865;-79
2024/01/29 05:40:36;;;;;;;26.25;16.95;;;;;;;;;;5019537;28;20445;-79
2024/01/29 05:43:02;;;;;;;31.45;18.35;;;;;;;;;;5018727;28;20399;-79
2024/01/29 05:45:28;;;;;;;31.05;18.92;;;;;;;;;;5019533;28;20392;-79
2024/01/29 05:47:54;;;;;;;32.92;18.90;;;;;;;;;;5019769;28;20395;-79
2024/01/29 05:50:20;;;;;;;37.17;19.93;;;;;;;;;;5019663;28;20439;-79
2024/01/29 05:52:46;;;;;;;35.17;19.50;;;;;;;;;;5018707;28;20442;-79
2024/01/29 05:55:12;;;;;;;32.80;18.85;;;;;;;;;;5019646;28;20385;-79
2024/01/29 05:57:38;;;;;;;31.23;19.27;;;;;;;;;;5019186;28;20461;-79
2024/01/29 06:00:09;;;;;;;32.60;19.63;;;;;;;;;;5019702;28;20391;-79
2024/01/29 06:02:39;;;;;;;31.67;19.27;;;;;;;;;;5019368;28;20937;-79
2024/01/29 06:05:05;;;;;;;29.83;19.75;;;;;;;;;;5018939;28;20499;-79
2024/01/29 06:07:31;;;;;;;29.92;19.15;;;;;;;;;;5019419;28;20851;-79
2024/01/29 06:09:57;;;;;;;24.52;18.27;;;;;;;;;;5019781;28;20399;-79
2024/01/29 06:12:23;;;;;;;27.17;18.47;;;;;;;;;;5019270;28;20392;-79
2024/01/29 06:14:49;;;;;;;26.27;18.23;;;;;;;;;;5019819;28;20388;-79
2024/01/29 06:17:15;;;;;;;24.45;17.83;;;;;;;;;;5019289;28;20389;-79
2024/01/29 06:19:41;;;;;;;24.50;17.48;;;;;;;;;;5019926;28;20878;-79
2024/01/29 06:22:07;;;;;;;26.70;17.95;;;;;;;;;;5019412;28;20384;-79
2024/01/29 06:24:33;;;;;;;27.47;18.53;;;;;;;;;;5019580;28;20754;-79
2024/01/29 06:26:59;;;;;;;26.13;17.65;;;;;;;;;;5019647;28;20389;-79
2024/01/29 06:29:25;;;;;;;22.83;16.30;;;;;;;;;;5019578;28;20922;-78
2024/01/29 06:31:51;;;;;;;27.30;17.85;;;;;;;;;;5019798;28;20431;-79
2024/01/29 06:34:17;;;;;;;23.45;16.98;;;;;;;;;;5019262;28;20388;-79
2024/01/29 06:36:43;;;;;;;26.05;17.08;;;;;;;;;;5034958;22;20420;-80
2024/01/29 06:39:09;;;;;;;24.35;17.38;;;;;;;;;;5026814;28;20417;-80
2024/01/29 06:41:35;;;;;;;23.83;17.05;;;;;;;;;;5022293;28;20862;-81
2024/01/29 06:44:02;;;;;;;23.05;16.50;;;;;;;;;;5033180;28;20395;-81
2024/01/29 06:46:28;;;;;;;23.17;17.48;;;;;;;;;;5022900;28;20743;-82
2024/01/29 06:48:54;;;;;;;22.20;16.40;;;;;;;;;;5018981;28;20411;-81
2024/01/29 06:51:20;;;;;;;24.38;18.08;;;;;;;;;;5019336;28;20743;-81
2024/01/29 06:53:46;;;;;;;26.88;17.90;;;;;;;;;;5019467;28;20388;-81
2024/01/29 06:56:13;;;;;;;26.98;17.73;;;;;;;;;;5022947;28;20388;-82
2024/01/29 06:58:39;;;;;;;23.03;17.73;;;;;;;;;;5019414;28;20388;-82
2024/01/29 07:01:05;;;;;;;25.65;17.85;;;;;;;;;;5018633;28;20385;-82
2024/01/29 07:03:31;;;;;;;27.35;18.38;;;;;;;;;;5018320;28;20412;-82
2024/01/29 07:05:57;;;;;;;26.13;18.00;;;;;;;;;;5019332;28;20385;-82
2024/01/29 07:08:24;;;;;;;26.70;18.30;;;;;;;;;;5018874;28;20376;-81
2024/01/29 07:10:50;;;;;;;24.98;17.90;;;;;;;;;;5018937;28;20385;-81
2024/01/29 07:13:16;;;;;;;27.90;18.98;;;;;;;;;;5019378;28;20432;-81
2024/01/29 07:15:43;;;;;;;25.10;18.60;;;;;;;;;;5018738;28;20886;-82
2024/01/29 07:18:09;;;;;;;29.08;19.67;;;;;;;;;;5018818;28;20464;-81
2024/01/29 07:20:39;;;;;;;27.97;19.17;;;;;;;;;;5018828;28;20474;-81
2024/01/29 07:23:06;;;;;;;27.80;19.38;;;;;;;;;;5017677;28;20921;-81
2024/01/29 07:25:32;;;;;;;27.25;19.73;;;;;;;;;;5019582;28;20877;-81
2024/01/29 07:28:00;;;;;;;27.92;18.52;;;;;;;;;;5018692;28;20377;-81
2024/01/29 07:30:26;;;;;;;25.17;17.67;;;;;;;;;;5019071;28;20385;-81
2024/01/29 07:32:52;;;;;;;26.17;18.42;;;;;;;;;;5018608;28;20408;-82
2024/01/29 07:35:18;;;;;;;25.60;18.65;;;;;;;;;;5018152;28;20395;-82
2024/01/29 07:37:44;;;;;;;22.20;16.83;;;;;;;;;;5018277;28;20425;-81
2024/01/29 07:40:10;;;;;;;22.33;16.90;;;;;;;;;;5018436;28;20922;-81
2024/01/29 07:42:36;;;;;;;23.23;16.83;;;;;;;;;;5017636;28;20445;-82
2024/01/29 07:45:03;;;;;;;21.75;17.30;;;;;;;;;;5017913;28;20420;-81
2024/01/29 07:47:29;;;;;;;21.80;16.80;;;;;;;;;;5018284;28;20381;-81
2024/01/29 07:49:55;;;;;;;25.45;18.05;;;;;;;;;;5018432;28;20466;-81
2024/01/29 07:52:21;;;;;;;25.08;17.85;;;;;;;;;;5016973;28;20381;-82
2024/01/29 07:54:47;;;;;;;25.50;18.40;;;;;;;;;;5018182;28;20439;-81
2024/01/29 07:57:13;;;;;;;28.08;18.67;;;;;;;;;;5017850;28;20839;-82
2024/01/29 07:59:40;;;;;;;35.97;19.73;;;;;;;;;;5016427;28;20385;-81
2024/01/29 08:02:06;;;;;;;36.93;20.80;;;;;;;;;;5017474;28;20557;-81
2024/01/29 08:04:32;;;;;;;32.88;20.00;;;;;;;;;;5017818;28;20404;-81
2024/01/29 08:06:58;;;;;;;31.35;19.70;;;;;;;;;;5017654;28;20442;-81
2024/01/29 08:09:28;;;;;;;28.42;19.67;;;;;;;;;;5017712;28;20412;-81
2024/01/29 08:11:54;;;;;;;28.20;18.80;;;;;;;;;;5018052;28;20376;-81
2024/01/29 08:14:21;;;;;;;25.67;18.17;;;;;;;;;;5017369;28;20389;-81
2024/01/29 08:16:47;;;;;;;27.60;18.67;;;;;;;;;;5017614;28;20376;-81
2024/01/29 08:19:13;;;;;;;27.93;18.43;;;;;;;;;;5017175;28;20435;-81
2024/01/29 08:21:39;;;;;;;27.80;18.40;;;;;;;;;;5017542;28;20407;-81
2024/01/29 08:24:05;;;;;;;24.60;18.00;;;;;;;;;;5017045;28;20499;-81
2024/01/29 08:26:31;;;;;;;25.10;17.83;;;;;;;;;;5017367;28;20380;-81
2024/01/29 08:28:58;;;;;;;25.17;17.83;;;;;;;;;;5017483;28;20389;-82
2024/01/29 08:31:24;;;;;;;23.08;17.10;;;;;;;;;;5017622;28;20766;-82
2024/01/29 08:33:50;;;;;;;25.35;17.08;;;;;;;;;;5016143;28;20385;-81
2024/01/29 08:36:16;;;;;;;24.20;17.60;;;;;;;;;;5017188;28;20415;-80
2024/01/29 08:38:43;;;;;;;26.35;17.65;;;;;;;;;;5016211;28;20407;-81
2024/01/29 08:41:09;;;;;;;24.38;17.25;;;;;;;;;;5018249;28;20396;-80
2024/01/29 08:43:35;;;;;;;26.15;16.52;;;;;;;;;;4999943;28;20413;-81
2024/01/29 08:46:01;;;;;;;25.42;17.00;;;;;;;;;;5018020;28;20417;-81
2024/01/29 08:48:27;;;;;;;24.63;17.38;;;;;;;;;;5017538;28;20377;-81
2024/01/29 08:50:53;;;;;;;26.50;18.13;;;;;;;;;;5017847;28;20376;-81
2024/01/29 08:53:19;;;;;;;26.67;18.30;;;;;;;;;;5017357;28;20385;-80
2024/01/29 08:55:45;;;;;;;25.55;19.40;;;;;;;;;;5017467;28;20381;-81
2024/01/29 08:58:11;;;;;;;26.37;18.17;;;;;;;;;;5016453;28;20724;-80
2024/01/29 09:00:37;;;;;;;21.35;16.85;;;;;;;;;;5017499;28;20385;-80
2024/01/29 09:03:03;;;;;;;23.15;17.45;;;;;;;;;;5017072;28;20385;-81
2024/01/29 09:05:29;;;;;;;23.92;17.83;;;;;;;;;;5017504;28;20409;-81
2024/01/29 09:07:55;;;;;;;23.20;17.52;;;;;;;;;;5017649;28;20459;-80
2024/01/29 09:10:21;;;;;;;22.98;17.88;;;;;;;;;;4999966;28;20416;-80
2024/01/29 09:12:47;;;;;;;25.60;18.48;;;;;;;;;;5016551;28;20463;-81
2024/01/29 09:15:13;;;;;;;24.20;17.87;;;;;;;;;;5017246;28;20396;-80
2024/01/29 09:17:40;;;;;;;28.10;19.75;;;;;;;;;;5016809;28;20398;-80
2024/01/29 09:20:09;;;;;;;28.30;19.65;;;;;;;;;;5017189;28;20389;-81
2024/01/29 09:22:35;;;;;;;40.22;20.70;;;;;;;;;;5016483;28;20882;-81
2024/01/29 09:25:01;;;;;;;35.70;20.98;;;;;;;;;;5017364;28;20967;-80
2024/01/29 09:27:29;;;;;;;29.77;19.48;;;;;;;;;;5016749;28;20417;-81
2024/01/29 09:29:55;;;;;;;32.00;20.53;;;;;;;;;;5016808;28;20386;-81
2024/01/29 09:32:21;;;;;;;28.20;20.00;;;;;;;;;;5016148;28;20393;-80
2024/01/29 09:34:47;;;;;;;29.38;19.92;;;;;;;;;;5016719;28;20389;-80
2024/01/29 09:37:13;;;;;;;30.48;19.92;;;;;;;;;;5016026;28;20448;-81
2024/01/29 09:39:39;;;;;;;32.00;20.65;;;;;;;;;;5016503;28;20479;-80
2024/01/29 09:42:06;;;;;;;31.13;20.88;;;;;;;;;;5016398;28;20926;-80
2024/01/29 09:44:37;;;;;;;28.77;20.55;;;;;;;;;;5016058;28;20401;-80
2024/01/29 09:47:05;;;;;;;31.10;21.10;;;;;;;;;;5016568;28;20466;-81
2024/01/29 09:49:31;;;;;;;31.70;21.87;;;;;;;;;;5016869;28;20376;-81
2024/01/29 09:51:57;;;;;;;32.38;21.50;;;;;;;;;;5016324;28;20519;-80
2024/01/29 09:54:23;;;;;;;36.55;23.33;;;;;;;;;;5016677;28;20921;-80
2024/01/29 09:56:49;;;;;;;34.78;23.20;;;;;;;;;;5015223;28;20472;-80
2024/01/29 09:59:15;;;;;;;35.35;22.40;;;;;;;;;;5014613;28;20431;-80
2024/01/29 10:01:41;;;;;;;33.95;22.08;;;;;;;;;;5016459;28;20385;-80
2024/01/29 10:04:07;;;;;;;33.33;21.43;;;;;;;;;;5016160;28;20405;-81
2024/01/29 10:06:33;;;;;;;31.95;21.30;;;;;;;;;;5016153;28;20446;-81
2024/01/29 10:08:59;;;;;;;34.85;23.40;;;;;;;;;;4998718;28;20397;-81
2024/01/29 10:11:25;;;;;;;34.50;22.83;;;;;;;;;;5016502;28;20381;-81
2024/01/29 10:13:58;;;;;;;37.90;23.67;;;;;;;;;;5016035;28;20388;-81
2024/01/29 10:16:24;;;;;;;60.35;28.40;;;;;;;;;;5016331;28;20377;-80
2024/01/29 10:18:56;;;;;;;58.72;30.50;;;;;;;;;;5015749;28;20887;-80
2024/01/29 10:21:23;;;;;;;59.55;32.35;;;;;;;;;;5015982;28;20403;-81
2024/01/29 10:23:56;;;;;;;50.35;29.15;;;;;;;;;;4999741;28;20401;-80
2024/01/29 10:26:22;;;;;;;48.67;27.63;;;;;;;;;;5006654;28;20373;-81
2024/01/29 10:28:58;;;;;;;47.33;27.38;;;;;;;;;;5019646;28;20415;-81
2024/01/29 10:31:24;;;;;;;41.10;25.83;;;;;;;;;;5019488;28;20408;-81
2024/01/29 10:33:50;;;;;;;46.97;26.93;;;;;;;;;;5020014;28;20848;-81
2024/01/29 10:36:17;;;;;;;53.95;29.67;;;;;;;;;;5019310;28;20397;-80
2024/01/29 10:38:46;;;;;;;51.90;29.40;;;;;;;;;;5018963;28;20898;-80
2024/01/29 10:41:16;;;;;;;60.67;32.47;;;;;;;;;;5018585;28;20718;-81
2024/01/29 10:43:46;;;;;;;102.05;47.08;;;;;;;;;;5019401;28;20401;-80
2024/01/29 10:46:13;;;;;;;81.97;40.75;;;;;;;;;;5018993;28;20460;-81
2024/01/29 10:48:39;;;;;;;80.57;39.20;;;;;;;;;;5018583;28;20463;-81
2024/01/29 10:51:06;;;;;;;94.93;44.90;;;;;;;;;;5019403;28;20867;-81
2024/01/29 10:53:33;;;;;;;103.30;47.75;;;;;;;;;;5018681;28;20392;-81
2024/01/29 10:55:59;;;;;;;105.28;48.00;;;;;;;;;;5019475;28;20420;-80
2024/01/29 10:58:25;;;;;;;105.13;48.75;;;;;;;;;;5019290;28;20399;-81
2024/01/29 11:00:52;;;;;;;110.95;51.40;;;;;;;;;;5019362;28;20376;-80
2024/01/29 11:03:21;;;;;;;105.60;48.57;;;;;;;;;;5018998;28;21125;-80
2024/01/29 11:05:51;;;;;;;107.75;48.72;;;;;;;;;;5000917;28;20423;-81
2024/01/29 11:08:25;;;;;;;125.20;52.75;;;;;;;;;;5019139;28;20471;-80
2024/01/29 11:10:51;;;;;;;130.70;54.97;;;;;;;;;;5018817;28;20455;-80
2024/01/29 11:13:18;;;;;;;153.75;59.80;;;;;;;;;;5000254;28;20388;-80
2024/01/29 11:15:44;;;;;;;149.48;59.40;;;;;;;;;;5018332;28;20477;-79
2024/01/29 11:18:11;;;;;;;154.48;62.10;;;;;;;;;;5018552;28;20388;-80
2024/01/29 11:20:40;;;;;;;155.07;61.42;;;;;;;;;;5018649;28;20733;-80
2024/01/29 11:23:09;;;;;;;128.73;56.93;;;;;;;;;;5017961;28;20391;-80
2024/01/29 11:25:37;;;;;;;131.38;56.03;;;;;;;;;;5018415;28;20408;-80
2024/01/29 11:28:03;;;;;;;120.63;54.15;;;;;;;;;;5018084;28;20756;-78
2024/01/29 11:30:29;;;;;;;126.75;54.83;;;;;;;;;;5014669;28;20564;-78
2024/01/29 11:32:56;;;;;;;124.82;53.53;;;;;;;;;;5014615;28;20380;-78
2024/01/29 11:35:26;;;;;;;115.10;53.75;;;;;;;;;;5014453;28;20423;-78
2024/01/29 11:37:52;;;;;;;92.78;44.72;;;;;;;;;;5013822;28;20456;-78
2024/01/29 11:40:35;;;;;;;88.25;44.28;;;;;;;;;;5014521;28;20385;-78
2024/01/29 11:43:03;;;;;;;83.43;39.58;;;;;;;;;;5013618;28;20403;-77
2024/01/29 11:45:32;;;;;;;83.53;42.30;;;;;;;;;;5013640;28;20432;-78
2024/01/29 11:47:59;;;;;;;84.20;41.43;;;;;;;;;;5014123;28;20453;-78
2024/01/29 11:50:25;;;;;;;82.18;41.10;;;;;;;;;;5014100;28;20396;-78
2024/01/29 11:52:51;;;;;;;80.93;40.83;;;;;;;;;;5015230;28;20389;-79
2024/01/29 11:55:19;;;;;;;99.07;47.92;;;;;;;;;;5015340;28;20412;-79
2024/01/29 11:57:46;;;;;;;107.25;47.55;;;;;;;;;;5015825;28;20392;-79
2024/01/29 12:00:17;;;;;;;105.65;48.53;;;;;;;;;;5015063;28;20451;-79
2024/01/29 12:02:44;;;;;;;132.85;56.90;;;;;;;;;;5015234;28;20407;-79
2024/01/29 12:05:13;;;;;;;116.07;52.20;;;;;;;;;;5015555;28;20441;-78
2024/01/29 12:07:39;;;;;;;116.45;52.63;;;;;;;;;;5015782;28;20424;-79
2024/01/29 12:10:05;;;;;;;106.22;50.35;;;;;;;;;;5015592;28;20476;-79
2024/01/29 12:12:31;;;;;;;100.65;48.30;;;;;;;;;;5015272;28;20393;-79
2024/01/29 12:14:57;;;;;;;110.07;49.10;;;;;;;;;;5014725;28;20396;-78
2024/01/29 12:17:24;;;;;;;106.40;50.00;;;;;;;;;;5013923;28;20464;-79
2024/01/29 12:19:51;;;;;;;99.53;48.83;;;;;;;;;;5016154;28;20420;-79
2024/01/29 12:22:17;;;;;;;99.63;47.47;;;;;;;;;;5015647;28;20395;-79
2024/01/29 12:24:43;;;;;;;94.43;45.75;;;;;;;;;;5015509;28;20870;-79
2024/01/29 12:27:09;;;;;;;88.03;44.47;;;;;;;;;;5015853;28;20525;-79
2024/01/29 12:29:39;;;;;;;91.50;44.30;;;;;;;;;;5015856;28;20412;-79
2024/01/29 12:32:11;;;;;;;96.38;47.10;;;;;;;;;;5015849;28;20381;-79
2024/01/29 12:34:48;;;;;;;86.32;43.13;;;;;;;;;;5015505;28;20876;-80
2024/01/29 12:37:21;;;;;;;91.27;43.87;;;;;;;;;;5015007;28;20568;-80
2024/01/29 12:39:51;;;;;;;85.63;44.03;;;;;;;;;;5015535;28;20905;-81
2024/01/29 12:42:17;;;;;;;76.35;40.67;;;;;;;;;;5015073;28;20392;-80
2024/01/29 12:44:43;;;;;;;79.85;42.10;;;;;;;;;;5015033;28;20401;-80
2024/01/29 12:47:13;;;;;;;69.17;38.23;;;;;;;;;;5014838;28;20441;-80
2024/01/29 12:49:39;;;;;;;71.00;38.47;;;;;;;;;;4998352;28;20770;-80
2024/01/29 12:52:05;;;;;;;94.75;46.75;;;;;;;;;;5015083;28;20877;-80
2024/01/29 12:54:31;;;;;;;89.27;45.27;;;;;;;;;;5014745;28;20455;-82
2024/01/29 12:56:57;;;;;;;87.57;45.40;;;;;;;;;;5015250;28;20743;-80
2024/01/29 12:59:24;;;;;;;89.75;45.67;;;;;;;;;;5015828;28;20863;-80
2024/01/29 13:01:50;;;;;;;85.47;44.65;;;;;;;;;;5015163;28;20405;-79
2024/01/29 13:04:16;;;;;;;79.85;41.08;;;;;;;;;;5009046;28;20409;-79
2024/01/29 13:06:42;;;;;;;86.78;43.78;;;;;;;;;;5007977;28;20427;-80
2024/01/29 13:09:08;;;;;;;79.25;41.47;;;;;;;;;;5014934;28;20377;-80
2024/01/29 13:11:34;;;;;;;83.43;43.00;;;;;;;;;;5014877;28;20456;-79
2024/01/29 13:14:00;;;;;;;80.63;41.45;;;;;;;;;;5014755;28;20393;-80
2024/01/29 13:16:27;;;;;;;68.75;38.42;;;;;;;;;;5015634;28;20455;-80
2024/01/29 13:18:53;;;;;;;70.30;37.95;;;;;;;;;;5014814;28;20743;-80
2024/01/29 13:21:21;;;;;;;71.03;39.10;;;;;;;;;;5015020;28;20800;-80
2024/01/29 13:23:47;;;;;;;73.82;39.33;;;;;;;;;;5015034;28;20408;-80
2024/01/29 13:26:16;;;;;;;70.82;38.78;;;;;;;;;;5015243;28;20523;-80
2024/01/29 13:28:42;;;;;;;55.35;33.22;;;;;;;;;;5015473;28;20519;-80
2024/01/29 13:31:08;;;;;;;62.67;35.83;;;;;;;;;;5015051;28;20408;-80
2024/01/29 13:33:34;;;;;;;64.53;36.75;;;;;;;;;;5014862;28;20415;-80
2024/01/29 13:36:02;;;;;;;68.50;36.45;;;;;;;;;;5014978;28;20775;-80
2024/01/29 13:38:28;;;;;;;57.47;35.78;;;;;;;;;;5013741;28;20507;-80
2024/01/29 13:40:54;;;;;;;59.55;34.38;;;;;;;;;;5015166;28;20961;-80
2024/01/29 13:43:20;;;;;;;66.35;38.03;;;;;;;;;;5015045;28;20384;-80
2024/01/29 13:45:47;;;;;;;59.07;35.80;;;;;;;;;;5014949;28;20381;-80
2024/01/29 13:48:13;;;;;;;65.73;37.57;;;;;;;;;;5014803;28;20476;-80
2024/01/29 13:50:39;;;;;;;61.58;35.50;;;;;;;;;;5015298;28;20869;-80
2024/01/29 13:53:06;;;;;;;67.67;38.23;;;;;;;;;;5014955;28;20377;-79
2024/01/29 13:55:32;;;;;;;66.38;38.17;;;;;;;;;;5012600;28;20377;-79
2024/01/29 13:57:58;;;;;;;66.82;37.35;;;;;;;;;;5015669;28;20450;-79
2024/01/29 14:00:24;;;;;;;65.95;37.72;;;;;;;;;;5017124;28;21390;-78
2024/01/29 14:02:51;;;;;;;68.27;38.60;;;;;;;;;;5016942;28;20397;-79
2024/01/29 14:05:17;;;;;;;74.95;41.13;;;;;;;;;;5016674;28;20770;-79
2024/01/29 14:07:43;;;;;;;64.65;38.53;;;;;;;;;;4999523;28;20871;-79
2024/01/29 14:10:09;;;;;;;72.13;40.70;;;;;;;;;;5016957;28;20448;-79
2024/01/29 14:12:35;;;;;;;76.60;41.72;;;;;;;;;;5016536;28;20475;-79